Hercules — WDI7674 — position and weather

sailwx.info

Track history (hours):
 
Tides and Currents Weather Stations Pressure Air Temp Water Temp Dewpoint Dewpoint Depression Visibility Wind Speed Wind Dir Waves Ship Positions

Hercules

Owner: P&L Towing and Transportation, Inc., Southwest Ranches, FL. More information available from US FCC via Universal Licensing System and Coast Guard Vessel Documentation Center.

Last reported at 2017-Dec-08 20:20 UTC. Time now 2017-Dec-11 09:39 UTC.
Position N 39°35' W 074°11'.

Length 20 m; draft 2.5 m.

Type: Towing. MMSI: 367080670.

Date/timePositionNaut miles runAvg speedWind from/ knotsBaromVisibWave heightAir tempDewpointWater temp
2017-Dec-08 20:20N 39°35' W 074°11'2 7.5
2017-Dec-08 20:00N 39°37' W 074°10'4 7.5
2017-Dec-08 19:30N 39°41' W 074°07'4 7.6
2017-Dec-08 18:55N 39°45' W 074°05'2 4.1
2017-Dec-08 18:30N 39°46' W 074°06'1 2.4
2017-Dec-08 17:58N 39°45' W 074°05'4 8.9
2017-Dec-08 17:30N 39°42' W 074°07'61 2.8
2017-Dec-07 19:47N 39°07' W 075°13'2 7.1
2017-Dec-07 19:28N 39°09' W 075°15'3 6.8
2017-Dec-07 19:00N 39°12' W 075°17'3 6.2
2017-Dec-07 18:30N 39°15' W 075°19'3 5.3
2017-Dec-07 18:00N 39°17' W 075°21'2 4.7
2017-Dec-07 17:30N 39°18' W 075°23'2 4.4
2017-Dec-07 17:01N 39°20' W 075°25'2 4.4
2017-Dec-07 16:30N 39°22' W 075°27'2 4.8
2017-Dec-07 16:01N 39°24' W 075°29'3 5.3
2017-Dec-07 15:30N 39°26' W 075°31'3 5.6
2017-Dec-07 15:00N 39°28' W 075°33'3 6.3
2017-Dec-07 14:30N 39°31' W 075°33'4 7.4
2017-Dec-07 14:01N 39°35' W 075°33'4 7.5
2017-Dec-07 13:30N 39°38' W 075°34'4 8.2
2017-Dec-07 13:00N 39°42' W 075°31'4 8.4
2017-Dec-07 12:30N 39°45' W 075°28'4 8.0
2017-Dec-07 12:00N 39°48' W 075°25'3 5.2
2017-Dec-07 11:30N 39°50' W 075°22'0 0.4
2017-Dec-07 10:59N 39°49' W 075°21'0 0.0
2017-Dec-07 10:31N 39°49' W 075°21'0 0.0
2017-Dec-07 10:00N 39°49' W 075°21'0 0.0
2017-Dec-07 09:30N 39°49' W 075°21'0 0.0
2017-Dec-07 09:00N 39°49' W 075°21'0 0.0
2017-Dec-07 08:31N 39°49' W 075°21'0 0.0
2017-Dec-07 08:01N 39°49' W 075°21'0 0.0
2017-Dec-07 07:30N 39°49' W 075°21'0 0.0
2017-Dec-07 07:01N 39°49' W 075°21'0 0.0
2017-Dec-07 06:30N 39°49' W 075°21'0 0.0
2017-Dec-07 06:00N 39°49' W 075°21'0 0.0
2017-Dec-07 05:30N 39°49' W 075°21'0 0.0
2017-Dec-07 04:59N 39°49' W 075°21'0 0.0
2017-Dec-07 04:29N 39°49' W 075°21'0 0.0
2017-Dec-07 04:00N 39°49' W 075°21'0 0.0
2017-Dec-07 03:30N 39°49' W 075°21'0 0.0
2017-Dec-07 03:01N 39°49' W 075°21'0 0.0
2017-Dec-07 02:30N 39°49' W 075°21'0 0.0
2017-Dec-07 02:01N 39°49' W 075°21'0 0.0
2017-Dec-07 01:30N 39°49' W 075°21'0 0.0
2017-Dec-07 01:01N 39°49' W 075°21'0 0.0
2017-Dec-07 00:31N 39°49' W 075°21'0 0.0
2017-Dec-07 00:00N 39°49' W 075°21'0 0.0
2017-Dec-06 23:30N 39°49' W 075°21'0 0.0
2017-Dec-06 23:00N 39°49' W 075°21'1 2.3
2017-Dec-06 22:30N 39°51' W 075°21'5 9.9
2017-Dec-06 22:01N 39°51' W 075°15'3 6.0
2017-Dec-06 21:30N 39°53' W 075°12'0 0.0
2017-Dec-06 21:00N 39°53' W 075°12'  
2017-Dec-04 10:30N 39°46' W 074°07'0 0.0
2017-Dec-04 10:00N 39°46' W 074°07'0 0.0
2017-Dec-04 09:30N 39°46' W 074°07'0 0.0
2017-Dec-04 09:00N 39°46' W 074°07'0 0.0
2017-Dec-04 08:30N 39°46' W 074°07'0 0.0
2017-Dec-04 08:00N 39°46' W 074°07'0 0.0
2017-Dec-04 07:30N 39°46' W 074°07'0 0.0
2017-Dec-04 07:00N 39°46' W 074°07'0 0.0
2017-Dec-04 06:30N 39°46' W 074°07'0 0.0
2017-Dec-04 06:00N 39°46' W 074°07'0 0.0
2017-Dec-04 05:30N 39°46' W 074°07'0 0.0
2017-Dec-04 05:00N 39°46' W 074°07'0 0.0
2017-Dec-04 04:30N 39°46' W 074°07'0 0.0
2017-Dec-04 03:57N 39°46' W 074°07'0 0.0
2017-Dec-04 03:30N 39°46' W 074°07'0 0.0
2017-Dec-04 03:00N 39°46' W 074°07'0 0.0
2017-Dec-04 02:30N 39°46' W 074°07'0 0.0
2017-Dec-04 02:00N 39°46' W 074°07'0 0.0
2017-Dec-04 01:30N 39°46' W 074°07'0 0.0
2017-Dec-04 00:59N 39°46' W 074°07'0 0.6
2017-Dec-04 00:30N 39°46' W 074°07'0 0.9
2017-Dec-04 00:00N 39°46' W 074°06'2 2.9
2017-Dec-03 23:28N 39°46' W 074°05'2 4.6
2017-Dec-03 23:00N 39°45' W 074°07'1 2.6
2017-Dec-03 22:29N 39°46' W 074°05'5 0.6
2017-Dec-03 14:36N 39°50' W 074°03'1 5.1
2017-Dec-03 14:23N 39°49' W 074°03'2 4.1
2017-Dec-03 14:00N 39°48' W 074°04'1 1.9
2017-Dec-03 13:25N 39°47' W 074°05'1 3.1
2017-Dec-03 13:00N 39°46' W 074°06'1 2.4
2017-Dec-03 12:30N 39°46' W 074°07'0 0.4
2017-Dec-03 11:59N 39°46' W 074°07'0 0.3
2017-Dec-03 11:30N 39°46' W 074°07'0 0.0
2017-Dec-03 11:00N 39°46' W 074°07'0 0.0
2017-Dec-03 10:30N 39°46' W 074°07'0 0.0
2017-Dec-03 10:00N 39°46' W 074°07'0 0.0
2017-Dec-03 09:23N 39°46' W 074°07'0 0.0
2017-Dec-03 09:00N 39°46' W 074°07'0 0.0
2017-Dec-03 08:27N 39°46' W 074°07'0 0.0
2017-Dec-03 08:00N 39°46' W 074°07'0 0.0
2017-Dec-03 07:30N 39°46' W 074°07'0 0.0
2017-Dec-03 07:00N 39°46' W 074°07'0 0.0
2017-Dec-03 06:30N 39°46' W 074°07'0 0.0
2017-Dec-03 06:00N 39°46' W 074°07'0 0.0
2017-Dec-03 05:28N 39°46' W 074°07'0 0.0
2017-Dec-03 05:00N 39°46' W 074°07'0 0.0
2017-Dec-03 04:30N 39°46' W 074°07'0 0.0
2017-Dec-03 03:59N 39°46' W 074°07'0 0.0
2017-Dec-03 03:30N 39°46' W 074°07'0 0.0
2017-Dec-03 03:00N 39°46' W 074°07'0 0.0
2017-Dec-03 02:26N 39°46' W 074°07'0 0.0
2017-Dec-03 01:58N 39°46' W 074°07'0 0.0
2017-Dec-03 01:30N 39°46' W 074°07'0 0.0
2017-Dec-03 00:59N 39°46' W 074°07'0 0.0
2017-Dec-03 00:30N 39°46' W 074°07'0 0.0
2017-Dec-03 00:00N 39°46' W 074°07'0 0.0
2017-Dec-02 23:30N 39°46' W 074°07'0 0.0
2017-Dec-02 22:58N 39°46' W 074°07'0 0.0
2017-Dec-02 22:30N 39°46' W 074°07'0 0.0
2017-Dec-02 22:00N 39°46' W 074°07'0 0.0
2017-Dec-02 21:30N 39°46' W 074°07'0 0.0
2017-Dec-02 21:00N 39°46' W 074°07'0 0.0
2017-Dec-02 20:30N 39°46' W 074°07'1 1.2
2017-Dec-02 20:00N 39°46' W 074°06'3 5.2
2017-Dec-02 19:26N 39°49' W 074°04'3 0.5
2017-Dec-02 14:28N 39°51' W 074°04'4 7.4
2017-Dec-02 13:59N 39°48' W 074°04'2 4.4
2017-Dec-02 13:28N 39°46' W 074°06'1 1.5
2017-Dec-02 13:00N 39°46' W 074°07'0 0.0
2017-Dec-02 12:30N 39°46' W 074°07'0 0.3
2017-Dec-02 11:59N 39°46' W 074°07'0 0.0
2017-Dec-02 11:30N 39°46' W 074°07'0 0.0
2017-Dec-02 11:00N 39°46' W 074°07'0 0.0
2017-Dec-02 10:30N 39°46' W 074°07'0 0.0
2017-Dec-02 09:59N 39°46' W 074°07'0 0.0
2017-Dec-02 09:29N 39°46' W 074°07'0 0.0
2017-Dec-02 08:58N 39°46' W 074°07'0 0.0
2017-Dec-02 08:30N 39°46' W 074°07'0 0.0
2017-Dec-02 08:00N 39°46' W 074°07'0 0.0
2017-Dec-02 07:30N 39°46' W 074°07'0 0.0
2017-Dec-02 07:00N 39°46' W 074°07'0 0.0
2017-Dec-02 06:30N 39°46' W 074°07'0 0.0
2017-Dec-02 05:59N 39°46' W 074°07'0 0.0
2017-Dec-02 05:30N 39°46' W 074°07'0 0.0
2017-Dec-02 04:59N 39°46' W 074°07'0 0.0
2017-Dec-02 04:30N 39°46' W 074°07'0 0.0
2017-Dec-02 04:00N 39°46' W 074°07'0 0.0
2017-Dec-02 03:30N 39°46' W 074°07'0 0.0
2017-Dec-02 03:00N 39°46' W 074°07'0 0.0
2017-Dec-02 02:30N 39°46' W 074°07'0 0.0
2017-Dec-02 02:00N 39°46' W 074°07'0 0.0
2017-Dec-02 01:30N 39°46' W 074°07'0 0.0
2017-Dec-02 01:00N 39°46' W 074°07'0 0.0
2017-Dec-02 00:30N 39°46' W 074°07'0 0.0
2017-Dec-02 00:00N 39°46' W 074°07'0 0.0
2017-Dec-01 23:30N 39°46' W 074°07'0 0.0
2017-Dec-01 22:59N 39°46' W 074°07'0 0.0
2017-Dec-01 22:29N 39°46' W 074°07'0 0.0
2017-Dec-01 22:00N 39°46' W 074°07'0 0.0
2017-Dec-01 21:30N 39°46' W 074°07'0 0.0
2017-Dec-01 20:59N 39°46' W 074°07'0 0.0
2017-Dec-01 20:30N 39°46' W 074°07'0 0.9
2017-Dec-01 20:00N 39°46' W 074°07'0 0.0
2017-Dec-01 19:30N 39°46' W 074°07'0 0.0
2017-Dec-01 19:00N 39°46' W 074°07'0 0.0
2017-Dec-01 18:30N 39°46' W 074°07'0 0.0
2017-Dec-01 18:00N 39°46' W 074°07'0 0.9
2017-Dec-01 17:30N 39°46' W 074°07'0 0.2
2017-Dec-01 16:59N 39°46' W 074°07'0 0.0
2017-Dec-01 16:28N 39°46' W 074°07'0 0.0
2017-Dec-01 16:00N 39°46' W 074°07'0 0.2
2017-Dec-01 15:30N 39°46' W 074°07'0 0.2
2017-Dec-01 15:00N 39°46' W 074°07'0 0.0
2017-Dec-01 14:28N 39°46' W 074°07'0 0.0
2017-Dec-01 14:00N 39°46' W 074°07'0 0.0
2017-Dec-01 13:30N 39°46' W 074°07'0 0.0
2017-Dec-01 12:59N 39°46' W 074°07'0 0.1
2017-Dec-01 12:29N 39°46' W 074°07'0 0.3
2017-Dec-01 12:00N 39°46' W 074°07'0 0.2
2017-Dec-01 11:30N 39°46' W 074°07'0 0.0
2017-Dec-01 11:00N 39°46' W 074°07'0 0.0
2017-Dec-01 10:30N 39°46' W 074°07'0 0.0
2017-Dec-01 09:59N 39°46' W 074°07'0 0.0
2017-Dec-01 09:25N 39°46' W 074°07'0 0.0
2017-Dec-01 08:59N 39°46' W 074°07'0 0.0
2017-Dec-01 08:29N 39°46' W 074°07'0 0.0
2017-Dec-01 08:00N 39°46' W 074°07'0 0.0
2017-Dec-01 07:30N 39°46' W 074°07'0 0.0
2017-Dec-01 07:00N 39°46' W 074°07'0 0.0
2017-Dec-01 06:30N 39°46' W 074°07'0 0.0
2017-Dec-01 05:58N 39°46' W 074°07'0 0.0
2017-Dec-01 05:29N 39°46' W 074°07'0 0.0
2017-Dec-01 04:59N 39°46' W 074°07'0 0.0
2017-Dec-01 04:30N 39°46' W 074°07'0 0.0
2017-Dec-01 04:00N 39°46' W 074°07'0 0.0
2017-Dec-01 03:29N 39°46' W 074°07'0 0.0
2017-Dec-01 02:55N 39°46' W 074°07'0 0.0
2017-Dec-01 02:30N 39°46' W 074°07'0 0.0
2017-Dec-01 01:59N 39°46' W 074°07'0 0.0
2017-Dec-01 01:30N 39°46' W 074°07'0 0.0
2017-Dec-01 00:54N 39°46' W 074°07'0 0.0
2017-Dec-01 00:29N 39°46' W 074°07'0 0.0
2017-Dec-01 00:00N 39°46' W 074°07'0 0.0
2017-Nov-30 23:30N 39°46' W 074°07'0 0.0
2017-Nov-30 23:00N 39°46' W 074°07'0 0.0
2017-Nov-30 22:30N 39°46' W 074°07'0 0.0
2017-Nov-30 21:57N 39°46' W 074°07'0 0.0
2017-Nov-30 21:29N 39°46' W 074°07'0 0.2
2017-Nov-30 20:56N 39°46' W 074°07'0 0.1
2017-Nov-30 20:28N 39°46' W 074°07'0 0.1
2017-Nov-30 19:57N 39°46' W 074°07'0 0.0
2017-Nov-30 19:30N 39°46' W 074°07'0 0.1
2017-Nov-30 18:57N 39°46' W 074°07'0 0.3
2017-Nov-30 18:30N 39°46' W 074°07'0 0.0
2017-Nov-30 18:00N 39°46' W 074°07'0 0.0
2017-Nov-30 17:28N 39°46' W 074°07'0 0.0
2017-Nov-30 17:00N 39°46' W 074°07'0 0.0
2017-Nov-30 16:27N 39°46' W 074°07'0 0.0
2017-Nov-30 15:58N 39°46' W 074°07'0 0.0
2017-Nov-30 15:29N 39°46' W 074°07'0 0.2
2017-Nov-30 14:59N 39°46' W 074°07'0 0.1
2017-Nov-30 14:28N 39°46' W 074°07'0 0.0
2017-Nov-30 13:56N 39°46' W 074°07'0 0.1
2017-Nov-30 13:29N 39°46' W 074°07'0 0.3
2017-Nov-30 12:59N 39°46' W 074°07'0 0.1
2017-Nov-30 12:30N 39°46' W 074°07'0 0.0
2017-Nov-30 11:59N 39°46' W 074°07'0 0.0
2017-Nov-30 11:30N 39°46' W 074°07'0 0.0
2017-Nov-30 11:00N 39°46' W 074°07'0 0.0
2017-Nov-30 10:30N 39°46' W 074°07'0 0.0
2017-Nov-30 10:00N 39°46' W 074°07'0 0.0
2017-Nov-30 09:30N 39°46' W 074°07'0 0.0
2017-Nov-30 09:00N 39°46' W 074°07'0 0.0
2017-Nov-30 08:30N 39°46' W 074°07'0 0.0
2017-Nov-30 08:00N 39°46' W 074°07'0 0.0
2017-Nov-30 07:28N 39°46' W 074°07'0 0.0
2017-Nov-30 06:59N 39°46' W 074°07'0 0.0
2017-Nov-30 06:29N 39°46' W 074°07'0 0.0
2017-Nov-30 06:00N 39°46' W 074°07'0 0.0
2017-Nov-30 05:30N 39°46' W 074°07'0 0.0
2017-Nov-30 04:57N 39°46' W 074°07'0 0.0
2017-Nov-30 04:30N 39°46' W 074°07'0 0.0
2017-Nov-30 03:57N 39°46' W 074°07'0 0.0
2017-Nov-30 03:30N 39°46' W 074°07'0 0.0
2017-Nov-30 02:59N 39°46' W 074°07'0 0.0
2017-Nov-30 02:30N 39°46' W 074°07'0 0.0
2017-Nov-30 02:00N 39°46' W 074°07'0 0.0
2017-Nov-30 01:29N 39°46' W 074°07'0 0.0
2017-Nov-30 01:00N 39°46' W 074°07'0 0.0
2017-Nov-30 00:30N 39°46' W 074°07'0 0.0
2017-Nov-29 23:57N 39°46' W 074°07'0 0.0
2017-Nov-29 23:30N 39°46' W 074°07'0 0.0
2017-Nov-29 23:00N 39°46' W 074°07'0 0.0
2017-Nov-29 22:30N 39°46' W 074°07'0 0.0
2017-Nov-29 21:59N 39°46' W 074°07'0 0.0
2017-Nov-29 21:27N 39°46' W 074°07'0 0.0
2017-Nov-29 20:56N 39°46' W 074°07'0 0.0
2017-Nov-29 20:27N 39°46' W 074°07'0 0.0
2017-Nov-29 20:00N 39°46' W 074°07'0 0.7
2017-Nov-29 19:30N 39°46' W 074°07'2 3.3
2017-Nov-29 18:58N 39°46' W 074°05'4 0.8
2017-Nov-29 13:46N 39°51' W 074°03'1 3.9
2017-Nov-29 13:30N 39°50' W 074°03'2 3.8
2017-Nov-29 12:57N 39°48' W 074°04'2 3.4
2017-Nov-29 12:30N 39°46' W 074°05'1 3.0
2017-Nov-29 12:00N 39°46' W 074°06'1 1.1
2017-Nov-29 11:30N 39°46' W 074°07'0 0.2
2017-Nov-29 11:00N 39°46' W 074°07'0 0.3
2017-Nov-29 10:30N 39°46' W 074°07'0 0.2
2017-Nov-29 10:01N 39°46' W 074°07'0 0.3
2017-Nov-29 09:30N 39°46' W 074°07'0 0.0
2017-Nov-29 08:59N 39°46' W 074°07'0 0.0
2017-Nov-29 08:30N 39°46' W 074°07'0 0.0
2017-Nov-29 08:00N 39°46' W 074°07'0 0.0
2017-Nov-29 07:29N 39°46' W 074°07'0 0.0
2017-Nov-29 07:00N 39°46' W 074°07'0 0.0
2017-Nov-29 06:29N 39°46' W 074°07'0 0.0
2017-Nov-29 06:00N 39°46' W 074°07'0 0.0
2017-Nov-29 05:30N 39°46' W 074°07'0 0.0
2017-Nov-29 05:00N 39°46' W 074°07'0 0.0
2017-Nov-29 04:30N 39°46' W 074°07'0 0.0
2017-Nov-29 04:00N 39°46' W 074°07'0 0.0
2017-Nov-29 03:30N 39°46' W 074°07'0 0.0
2017-Nov-29 03:00N 39°46' W 074°07'0 0.0
2017-Nov-29 02:30N 39°46' W 074°07'0 0.0
2017-Nov-29 01:58N 39°46' W 074°07'0 0.0
2017-Nov-29 01:29N 39°46' W 074°07'0 0.0
2017-Nov-29 00:59N 39°46' W 074°07'0 0.0
2017-Nov-29 00:30N 39°46' W 074°07'0 0.0
2017-Nov-29 00:00N 39°46' W 074°07'0 0.0
2017-Nov-28 23:24N 39°46' W 074°07'0 0.0
2017-Nov-28 22:59N 39°46' W 074°07'0 0.0
2017-Nov-28 22:29N 39°46' W 074°07'0 0.0
2017-Nov-28 22:00N 39°46' W 074°07'1 1.1
2017-Nov-28 21:30N 39°46' W 074°07'0 0.7
2017-Nov-28 21:00N 39°46' W 074°07'0 0.0
2017-Nov-28 20:30N 39°46' W 074°07'  
Track history (hours):
 
Tides and Currents Weather Stations Pressure Air Temp Water Temp Dewpoint Dewpoint Depression Visibility Wind Speed Wind Dir Waves Ship Positions

Hercules

Owner: P&L Towing and Transportation, Inc., Southwest Ranches, FL. More information available from US FCC via Universal Licensing System and Coast Guard Vessel Documentation Center.

Last reported at 2017-Dec-08 20:20 UTC. Time now 2017-Dec-11 09:39 UTC.
Position N 39°35' W 074°11'.

Length 20 m; draft 2.5 m.

Type: Towing. MMSI: 367080670.

Date/timePositionNaut miles runAvg speedWind from/ knotsBaromVisibWave heightAir tempDewpointWater temp
2017-Dec-08 20:20N 39°35' W 074°11'2 7.5
2017-Dec-08 20:00N 39°37' W 074°10'4 7.5
2017-Dec-08 19:30N 39°41' W 074°07'4 7.6
2017-Dec-08 18:55N 39°45' W 074°05'2 4.1
2017-Dec-08 18:30N 39°46' W 074°06'1 2.4
2017-Dec-08 17:58N 39°45' W 074°05'4 8.9
2017-Dec-08 17:30N 39°42' W 074°07'61 2.8
2017-Dec-07 19:47N 39°07' W 075°13'2 7.1
2017-Dec-07 19:28N 39°09' W 075°15'3 6.8
2017-Dec-07 19:00N 39°12' W 075°17'3 6.2
2017-Dec-07 18:30N 39°15' W 075°19'3 5.3
2017-Dec-07 18:00N 39°17' W 075°21'2 4.7
2017-Dec-07 17:30N 39°18' W 075°23'2 4.4
2017-Dec-07 17:01N 39°20' W 075°25'2 4.4
2017-Dec-07 16:30N 39°22' W 075°27'2 4.8
2017-Dec-07 16:01N 39°24' W 075°29'3 5.3
2017-Dec-07 15:30N 39°26' W 075°31'3 5.6
2017-Dec-07 15:00N 39°28' W 075°33'3 6.3
2017-Dec-07 14:30N 39°31' W 075°33'4 7.4
2017-Dec-07 14:01N 39°35' W 075°33'4 7.5
2017-Dec-07 13:30N 39°38' W 075°34'4 8.2
2017-Dec-07 13:00N 39°42' W 075°31'4 8.4
2017-Dec-07 12:30N 39°45' W 075°28'4 8.0
2017-Dec-07 12:00N 39°48' W 075°25'3 5.2
2017-Dec-07 11:30N 39°50' W 075°22'0 0.4
2017-Dec-07 10:59N 39°49' W 075°21'0 0.0
2017-Dec-07 10:31N 39°49' W 075°21'0 0.0
2017-Dec-07 10:00N 39°49' W 075°21'0 0.0
2017-Dec-07 09:30N 39°49' W 075°21'0 0.0
2017-Dec-07 09:00N 39°49' W 075°21'0 0.0
2017-Dec-07 08:31N 39°49' W 075°21'0 0.0
2017-Dec-07 08:01N 39°49' W 075°21'0 0.0
2017-Dec-07 07:30N 39°49' W 075°21'0 0.0
2017-Dec-07 07:01N 39°49' W 075°21'0 0.0
2017-Dec-07 06:30N 39°49' W 075°21'0 0.0
2017-Dec-07 06:00N 39°49' W 075°21'0 0.0
2017-Dec-07 05:30N 39°49' W 075°21'0 0.0
2017-Dec-07 04:59N 39°49' W 075°21'0 0.0
2017-Dec-07 04:29N 39°49' W 075°21'0 0.0
2017-Dec-07 04:00N 39°49' W 075°21'0 0.0
2017-Dec-07 03:30N 39°49' W 075°21'0 0.0
2017-Dec-07 03:01N 39°49' W 075°21'0 0.0
2017-Dec-07 02:30N 39°49' W 075°21'0 0.0
2017-Dec-07 02:01N 39°49' W 075°21'0 0.0
2017-Dec-07 01:30N 39°49' W 075°21'0 0.0
2017-Dec-07 01:01N 39°49' W 075°21'0 0.0
2017-Dec-07 00:31N 39°49' W 075°21'0 0.0
2017-Dec-07 00:00N 39°49' W 075°21'0 0.0
2017-Dec-06 23:30N 39°49' W 075°21'0 0.0
2017-Dec-06 23:00N 39°49' W 075°21'1 2.3
2017-Dec-06 22:30N 39°51' W 075°21'5 9.9
2017-Dec-06 22:01N 39°51' W 075°15'3 6.0
2017-Dec-06 21:30N 39°53' W 075°12'0 0.0
2017-Dec-06 21:00N 39°53' W 075°12'  
2017-Dec-04 10:30N 39°46' W 074°07'0 0.0
2017-Dec-04 10:00N 39°46' W 074°07'0 0.0
2017-Dec-04 09:30N 39°46' W 074°07'0 0.0
2017-Dec-04 09:00N 39°46' W 074°07'0 0.0
2017-Dec-04 08:30N 39°46' W 074°07'0 0.0
2017-Dec-04 08:00N 39°46' W 074°07'0 0.0
2017-Dec-04 07:30N 39°46' W 074°07'0 0.0
2017-Dec-04 07:00N 39°46' W 074°07'0 0.0
2017-Dec-04 06:30N 39°46' W 074°07'0 0.0
2017-Dec-04 06:00N 39°46' W 074°07'0 0.0
2017-Dec-04 05:30N 39°46' W 074°07'0 0.0
2017-Dec-04 05:00N 39°46' W 074°07'0 0.0
2017-Dec-04 04:30N 39°46' W 074°07'0 0.0
2017-Dec-04 03:57N 39°46' W 074°07'0 0.0
2017-Dec-04 03:30N 39°46' W 074°07'0 0.0
2017-Dec-04 03:00N 39°46' W 074°07'0 0.0
2017-Dec-04 02:30N 39°46' W 074°07'0 0.0
2017-Dec-04 02:00N 39°46' W 074°07'0 0.0
2017-Dec-04 01:30N 39°46' W 074°07'0 0.0
2017-Dec-04 00:59N 39°46' W 074°07'0 0.6
2017-Dec-04 00:30N 39°46' W 074°07'0 0.9
2017-Dec-04 00:00N 39°46' W 074°06'2 2.9
2017-Dec-03 23:28N 39°46' W 074°05'2 4.6
2017-Dec-03 23:00N 39°45' W 074°07'1 2.6
2017-Dec-03 22:29N 39°46' W 074°05'5 0.6
2017-Dec-03 14:36N 39°50' W 074°03'1 5.1
2017-Dec-03 14:23N 39°49' W 074°03'2 4.1
2017-Dec-03 14:00N 39°48' W 074°04'1 1.9
2017-Dec-03 13:25N 39°47' W 074°05'1 3.1
2017-Dec-03 13:00N 39°46' W 074°06'1 2.4
2017-Dec-03 12:30N 39°46' W 074°07'0 0.4
2017-Dec-03 11:59N 39°46' W 074°07'0 0.3
2017-Dec-03 11:30N 39°46' W 074°07'0 0.0
2017-Dec-03 11:00N 39°46' W 074°07'0 0.0
2017-Dec-03 10:30N 39°46' W 074°07'0 0.0
2017-Dec-03 10:00N 39°46' W 074°07'0 0.0
2017-Dec-03 09:23N 39°46' W 074°07'0 0.0
2017-Dec-03 09:00N 39°46' W 074°07'0 0.0
2017-Dec-03 08:27N 39°46' W 074°07'0 0.0
2017-Dec-03 08:00N 39°46' W 074°07'0 0.0
2017-Dec-03 07:30N 39°46' W 074°07'0 0.0
2017-Dec-03 07:00N 39°46' W 074°07'0 0.0
2017-Dec-03 06:30N 39°46' W 074°07'0 0.0
2017-Dec-03 06:00N 39°46' W 074°07'0 0.0
2017-Dec-03 05:28N 39°46' W 074°07'0 0.0
2017-Dec-03 05:00N 39°46' W 074°07'0 0.0
2017-Dec-03 04:30N 39°46' W 074°07'0 0.0
2017-Dec-03 03:59N 39°46' W 074°07'0 0.0
2017-Dec-03 03:30N 39°46' W 074°07'0 0.0
2017-Dec-03 03:00N 39°46' W 074°07'0 0.0
2017-Dec-03 02:26N 39°46' W 074°07'0 0.0
2017-Dec-03 01:58N 39°46' W 074°07'0 0.0
2017-Dec-03 01:30N 39°46' W 074°07'0 0.0
2017-Dec-03 00:59N 39°46' W 074°07'0 0.0
2017-Dec-03 00:30N 39°46' W 074°07'0 0.0
2017-Dec-03 00:00N 39°46' W 074°07'0 0.0
2017-Dec-02 23:30N 39°46' W 074°07'0 0.0
2017-Dec-02 22:58N 39°46' W 074°07'0 0.0
2017-Dec-02 22:30N 39°46' W 074°07'0 0.0
2017-Dec-02 22:00N 39°46' W 074°07'0 0.0
2017-Dec-02 21:30N 39°46' W 074°07'0 0.0
2017-Dec-02 21:00N 39°46' W 074°07'0 0.0
2017-Dec-02 20:30N 39°46' W 074°07'1 1.2
2017-Dec-02 20:00N 39°46' W 074°06'3 5.2
2017-Dec-02 19:26N 39°49' W 074°04'3 0.5
2017-Dec-02 14:28N 39°51' W 074°04'4 7.4
2017-Dec-02 13:59N 39°48' W 074°04'2 4.4
2017-Dec-02 13:28N 39°46' W 074°06'1 1.5
2017-Dec-02 13:00N 39°46' W 074°07'0 0.0
2017-Dec-02 12:30N 39°46' W 074°07'0 0.3
2017-Dec-02 11:59N 39°46' W 074°07'0 0.0
2017-Dec-02 11:30N 39°46' W 074°07'0 0.0
2017-Dec-02 11:00N 39°46' W 074°07'0 0.0
2017-Dec-02 10:30N 39°46' W 074°07'0 0.0
2017-Dec-02 09:59N 39°46' W 074°07'0 0.0
2017-Dec-02 09:29N 39°46' W 074°07'0 0.0
2017-Dec-02 08:58N 39°46' W 074°07'0 0.0
2017-Dec-02 08:30N 39°46' W 074°07'0 0.0
2017-Dec-02 08:00N 39°46' W 074°07'0 0.0
2017-Dec-02 07:30N 39°46' W 074°07'0 0.0
2017-Dec-02 07:00N 39°46' W 074°07'0 0.0
2017-Dec-02 06:30N 39°46' W 074°07'0 0.0
2017-Dec-02 05:59N 39°46' W 074°07'0 0.0
2017-Dec-02 05:30N 39°46' W 074°07'0 0.0
2017-Dec-02 04:59N 39°46' W 074°07'0 0.0
2017-Dec-02 04:30N 39°46' W 074°07'0 0.0
2017-Dec-02 04:00N 39°46' W 074°07'0 0.0
2017-Dec-02 03:30N 39°46' W 074°07'0 0.0
2017-Dec-02 03:00N 39°46' W 074°07'0 0.0
2017-Dec-02 02:30N 39°46' W 074°07'0 0.0
2017-Dec-02 02:00N 39°46' W 074°07'0 0.0
2017-Dec-02 01:30N 39°46' W 074°07'0 0.0
2017-Dec-02 01:00N 39°46' W 074°07'0 0.0
2017-Dec-02 00:30N 39°46' W 074°07'0 0.0
2017-Dec-02 00:00N 39°46' W 074°07'0 0.0
2017-Dec-01 23:30N 39°46' W 074°07'0 0.0
2017-Dec-01 22:59N 39°46' W 074°07'0 0.0
2017-Dec-01 22:29N 39°46' W 074°07'0 0.0
2017-Dec-01 22:00N 39°46' W 074°07'0 0.0
2017-Dec-01 21:30N 39°46' W 074°07'0 0.0
2017-Dec-01 20:59N 39°46' W 074°07'0 0.0
2017-Dec-01 20:30N 39°46' W 074°07'0 0.9
2017-Dec-01 20:00N 39°46' W 074°07'0 0.0
2017-Dec-01 19:30N 39°46' W 074°07'0 0.0
2017-Dec-01 19:00N 39°46' W 074°07'0 0.0
2017-Dec-01 18:30N 39°46' W 074°07'0 0.0
2017-Dec-01 18:00N 39°46' W 074°07'0 0.9
2017-Dec-01 17:30N 39°46' W 074°07'0 0.2
2017-Dec-01 16:59N 39°46' W 074°07'0 0.0
2017-Dec-01 16:28N 39°46' W 074°07'0 0.0
2017-Dec-01 16:00N 39°46' W 074°07'0 0.2
2017-Dec-01 15:30N 39°46' W 074°07'0 0.2
2017-Dec-01 15:00N 39°46' W 074°07'0 0.0
2017-Dec-01 14:28N 39°46' W 074°07'0 0.0
2017-Dec-01 14:00N 39°46' W 074°07'0 0.0
2017-Dec-01 13:30N 39°46' W 074°07'0 0.0
2017-Dec-01 12:59N 39°46' W 074°07'0 0.1
2017-Dec-01 12:29N 39°46' W 074°07'0 0.3
2017-Dec-01 12:00N 39°46' W 074°07'0 0.2
2017-Dec-01 11:30N 39°46' W 074°07'0 0.0
2017-Dec-01 11:00N 39°46' W 074°07'0 0.0
2017-Dec-01 10:30N 39°46' W 074°07'0 0.0
2017-Dec-01 09:59N 39°46' W 074°07'0 0.0
2017-Dec-01 09:25N 39°46' W 074°07'0 0.0
2017-Dec-01 08:59N 39°46' W 074°07'0 0.0
2017-Dec-01 08:29N 39°46' W 074°07'0 0.0
2017-Dec-01 08:00N 39°46' W 074°07'0 0.0
2017-Dec-01 07:30N 39°46' W 074°07'0 0.0
2017-Dec-01 07:00N 39°46' W 074°07'0 0.0
2017-Dec-01 06:30N 39°46' W 074°07'0 0.0
2017-Dec-01 05:58N 39°46' W 074°07'0 0.0
2017-Dec-01 05:29N 39°46' W 074°07'0 0.0
2017-Dec-01 04:59N 39°46' W 074°07'0 0.0
2017-Dec-01 04:30N 39°46' W 074°07'0 0.0
2017-Dec-01 04:00N 39°46' W 074°07'0 0.0
2017-Dec-01 03:29N 39°46' W 074°07'0 0.0
2017-Dec-01 02:55N 39°46' W 074°07'0 0.0
2017-Dec-01 02:30N 39°46' W 074°07'0 0.0
2017-Dec-01 01:59N 39°46' W 074°07'0 0.0
2017-Dec-01 01:30N 39°46' W 074°07'0 0.0
2017-Dec-01 00:54N 39°46' W 074°07'0 0.0
2017-Dec-01 00:29N 39°46' W 074°07'0 0.0
2017-Dec-01 00:00N 39°46' W 074°07'0 0.0
2017-Nov-30 23:30N 39°46' W 074°07'0 0.0
2017-Nov-30 23:00N 39°46' W 074°07'0 0.0
2017-Nov-30 22:30N 39°46' W 074°07'0 0.0
2017-Nov-30 21:57N 39°46' W 074°07'0 0.0
2017-Nov-30 21:29N 39°46' W 074°07'0 0.2
2017-Nov-30 20:56N 39°46' W 074°07'0 0.1
2017-Nov-30 20:28N 39°46' W 074°07'0 0.1
2017-Nov-30 19:57N 39°46' W 074°07'0 0.0
2017-Nov-30 19:30N 39°46' W 074°07'0 0.1
2017-Nov-30 18:57N 39°46' W 074°07'0 0.3
2017-Nov-30 18:30N 39°46' W 074°07'0 0.0
2017-Nov-30 18:00N 39°46' W 074°07'0 0.0
2017-Nov-30 17:28N 39°46' W 074°07'0 0.0
2017-Nov-30 17:00N 39°46' W 074°07'0 0.0
2017-Nov-30 16:27N 39°46' W 074°07'0 0.0
2017-Nov-30 15:58N 39°46' W 074°07'0 0.0
2017-Nov-30 15:29N 39°46' W 074°07'0 0.2
2017-Nov-30 14:59N 39°46' W 074°07'0 0.1
2017-Nov-30 14:28N 39°46' W 074°07'0 0.0
2017-Nov-30 13:56N 39°46' W 074°07'0 0.1
2017-Nov-30 13:29N 39°46' W 074°07'0 0.3
2017-Nov-30 12:59N 39°46' W 074°07'0 0.1
2017-Nov-30 12:30N 39°46' W 074°07'0 0.0
2017-Nov-30 11:59N 39°46' W 074°07'0 0.0
2017-Nov-30 11:30N 39°46' W 074°07'0 0.0
2017-Nov-30 11:00N 39°46' W 074°07'0 0.0
2017-Nov-30 10:30N 39°46' W 074°07'0 0.0
2017-Nov-30 10:00N 39°46' W 074°07'0 0.0
2017-Nov-30 09:30N 39°46' W 074°07'0 0.0
2017-Nov-30 09:00N 39°46' W 074°07'0 0.0
2017-Nov-30 08:30N 39°46' W 074°07'0 0.0
2017-Nov-30 08:00N 39°46' W 074°07'0 0.0
2017-Nov-30 07:28N 39°46' W 074°07'0 0.0
2017-Nov-30 06:59N 39°46' W 074°07'0 0.0
2017-Nov-30 06:29N 39°46' W 074°07'0 0.0
2017-Nov-30 06:00N 39°46' W 074°07'0 0.0
2017-Nov-30 05:30N 39°46' W 074°07'0 0.0
2017-Nov-30 04:57N 39°46' W 074°07'0 0.0
2017-Nov-30 04:30N 39°46' W 074°07'0 0.0
2017-Nov-30 03:57N 39°46' W 074°07'0 0.0
2017-Nov-30 03:30N 39°46' W 074°07'0 0.0
2017-Nov-30 02:59N 39°46' W 074°07'0 0.0
2017-Nov-30 02:30N 39°46' W 074°07'0 0.0
2017-Nov-30 02:00N 39°46' W 074°07'0 0.0
2017-Nov-30 01:29N 39°46' W 074°07'0 0.0
2017-Nov-30 01:00N 39°46' W 074°07'0 0.0
2017-Nov-30 00:30N 39°46' W 074°07'0 0.0
2017-Nov-29 23:57N 39°46' W 074°07'0 0.0
2017-Nov-29 23:30N 39°46' W 074°07'0 0.0
2017-Nov-29 23:00N 39°46' W 074°07'0 0.0
2017-Nov-29 22:30N 39°46' W 074°07'0 0.0
2017-Nov-29 21:59N 39°46' W 074°07'0 0.0
2017-Nov-29 21:27N 39°46' W 074°07'0 0.0
2017-Nov-29 20:56N 39°46' W 074°07'0 0.0
2017-Nov-29 20:27N 39°46' W 074°07'0 0.0
2017-Nov-29 20:00N 39°46' W 074°07'0 0.7
2017-Nov-29 19:30N 39°46' W 074°07'2 3.3
2017-Nov-29 18:58N 39°46' W 074°05'4 0.8
2017-Nov-29 13:46N 39°51' W 074°03'1 3.9
2017-Nov-29 13:30N 39°50' W 074°03'2 3.8
2017-Nov-29 12:57N 39°48' W 074°04'2 3.4
2017-Nov-29 12:30N 39°46' W 074°05'1 3.0
2017-Nov-29 12:00N 39°46' W 074°06'1 1.1
2017-Nov-29 11:30N 39°46' W 074°07'0 0.2
2017-Nov-29 11:00N 39°46' W 074°07'0 0.3
2017-Nov-29 10:30N 39°46' W 074°07'0 0.2
2017-Nov-29 10:01N 39°46' W 074°07'0 0.3
2017-Nov-29 09:30N 39°46' W 074°07'0 0.0
2017-Nov-29 08:59N 39°46' W 074°07'0 0.0
2017-Nov-29 08:30N 39°46' W 074°07'0 0.0
2017-Nov-29 08:00N 39°46' W 074°07'0 0.0
2017-Nov-29 07:29N 39°46' W 074°07'0 0.0
2017-Nov-29 07:00N 39°46' W 074°07'0 0.0
2017-Nov-29 06:29N 39°46' W 074°07'0 0.0
2017-Nov-29 06:00N 39°46' W 074°07'0 0.0
2017-Nov-29 05:30N 39°46' W 074°07'0 0.0
2017-Nov-29 05:00N 39°46' W 074°07'0 0.0
2017-Nov-29 04:30N 39°46' W 074°07'0 0.0
2017-Nov-29 04:00N 39°46' W 074°07'0 0.0
2017-Nov-29 03:30N 39°46' W 074°07'0 0.0
2017-Nov-29 03:00N 39°46' W 074°07'0 0.0
2017-Nov-29 02:30N 39°46' W 074°07'0 0.0
2017-Nov-29 01:58N 39°46' W 074°07'0 0.0
2017-Nov-29 01:29N 39°46' W 074°07'0 0.0
2017-Nov-29 00:59N 39°46' W 074°07'0 0.0
2017-Nov-29 00:30N 39°46' W 074°07'0 0.0
2017-Nov-29 00:00N 39°46' W 074°07'0 0.0
2017-Nov-28 23:24N 39°46' W 074°07'0 0.0
2017-Nov-28 22:59N 39°46' W 074°07'0 0.0
2017-Nov-28 22:29N 39°46' W 074°07'0 0.0
2017-Nov-28 22:00N 39°46' W 074°07'1 1.1
2017-Nov-28 21:30N 39°46' W 074°07'0 0.7
2017-Nov-28 21:00N 39°46' W 074°07'0 0.0
2017-Nov-28 20:30N 39°46' W 074°07'  

Dump ship's entire track history